sensor_id;sensor_type;location;lat;lon;timestamp;P1;durP1;ratioP1;P2;durP2;ratioP2
69323;SDS011;56470;47.350;8.718;2022-07-23T00:00:10;10.27;;;8.13;;
69323;SDS011;56470;47.350;8.718;2022-07-23T00:02:36;12.57;;;8.97;;
69323;SDS011;56470;47.350;8.718;2022-07-23T00:05:02;11.80;;;8.07;;
69323;SDS011;56470;47.350;8.718;2022-07-23T00:07:27;12.23;;;7.97;;
69323;SDS011;56470;47.350;8.718;2022-07-23T00:09:53;12.18;;;8.93;;
69323;SDS011;56470;47.350;8.718;2022-07-23T00:12:18;12.63;;;8.60;;
69323;SDS011;56470;47.350;8.718;2022-07-23T00:14:44;12.87;;;8.73;;
69323;SDS011;56470;47.350;8.718;2022-07-23T00:17:09;12.93;;;8.60;;
69323;SDS011;56470;47.350;8.718;2022-07-23T00:19:34;13.87;;;9.33;;
69323;SDS011;56470;47.350;8.718;2022-07-23T00:22:00;13.38;;;9.60;;
69323;SDS011;56470;47.350;8.718;2022-07-23T00:24:25;12.87;;;10.00;;
69323;SDS011;56470;47.350;8.718;2022-07-23T00:26:51;14.97;;;9.40;;
69323;SDS011;56470;47.350;8.718;2022-07-23T00:29:16;13.20;;;9.37;;
69323;SDS011;56470;47.350;8.718;2022-07-23T00:31:41;16.70;;;9.65;;
69323;SDS011;56470;47.350;8.718;2022-07-23T00:34:07;14.00;;;10.13;;
69323;SDS011;56470;47.350;8.718;2022-07-23T00:36:32;13.60;;;10.23;;
69323;SDS011;56470;47.350;8.718;2022-07-23T00:38:57;13.80;;;10.30;;
69323;SDS011;56470;47.350;8.718;2022-07-23T00:41:23;13.97;;;9.27;;
69323;SDS011;56470;47.350;8.718;2022-07-23T00:43:48;16.13;;;10.53;;
69323;SDS011;56470;47.350;8.718;2022-07-23T00:46:18;13.40;;;9.73;;
69323;SDS011;56470;47.350;8.718;2022-07-23T00:48:45;17.40;;;10.15;;
69323;SDS011;56470;47.350;8.718;2022-07-23T00:51:11;12.17;;;8.60;;
69323;SDS011;56470;47.350;8.718;2022-07-23T00:53:36;12.93;;;9.45;;
69323;SDS011;56470;47.350;8.718;2022-07-23T00:56:02;12.93;;;9.13;;
69323;SDS011;56470;47.350;8.718;2022-07-23T00:58:27;16.03;;;9.90;;
69323;SDS011;56470;47.350;8.718;2022-07-23T01:00:53;13.70;;;10.10;;
69323;SDS011;56470;47.350;8.718;2022-07-23T01:03:18;13.60;;;9.30;;
69323;SDS011;56470;47.350;8.718;2022-07-23T01:05:44;17.00;;;10.10;;
69323;SDS011;56470;47.350;8.718;2022-07-23T01:08:10;13.45;;;10.23;;
69323;SDS011;56470;47.350;8.718;2022-07-23T01:10:36;14.57;;;9.90;;
69323;SDS011;56470;47.350;8.718;2022-07-23T01:15:32;14.20;;;9.82;;
69323;SDS011;56470;47.350;8.718;2022-07-23T01:18:00;16.20;;;10.02;;
69323;SDS011;56470;47.350;8.718;2022-07-23T01:20:26;13.27;;;10.02;;
69323;SDS011;56470;47.350;8.718;2022-07-23T01:22:51;12.33;;;9.37;;
69323;SDS011;56470;47.350;8.718;2022-07-23T01:25:18;13.00;;;10.07;;
69323;SDS011;56470;47.350;8.718;2022-07-23T01:27:44;15.73;;;10.83;;
69323;SDS011;56470;47.350;8.718;2022-07-23T01:30:09;15.00;;;9.20;;
69323;SDS011;56470;47.350;8.718;2022-07-23T01:32:35;13.97;;;9.77;;
69323;SDS011;56470;47.350;8.718;2022-07-23T01:35:00;15.23;;;10.80;;
69323;SDS011;56470;47.350;8.718;2022-07-23T01:37:26;14.15;;;10.20;;
69323;SDS011;56470;47.350;8.718;2022-07-23T01:39:51;15.60;;;10.30;;
69323;SDS011;56470;47.350;8.718;2022-07-23T01:42:16;14.30;;;10.07;;
69323;SDS011;56470;47.350;8.718;2022-07-23T01:44:42;15.10;;;10.13;;
69323;SDS011;56470;47.350;8.718;2022-07-23T01:47:07;12.60;;;9.23;;
69323;SDS011;56470;47.350;8.718;2022-07-23T01:49:32;13.20;;;9.60;;
69323;SDS011;56470;47.350;8.718;2022-07-23T01:51:58;13.63;;;8.73;;
69323;SDS011;56470;47.350;8.718;2022-07-23T01:54:26;15.65;;;10.45;;
69323;SDS011;56470;47.350;8.718;2022-07-23T01:56:53;14.00;;;10.57;;
69323;SDS011;56470;47.350;8.718;2022-07-23T01:59:18;12.17;;;9.17;;
69323;SDS011;56470;47.350;8.718;2022-07-23T02:01:44;11.77;;;9.23;;
69323;SDS011;56470;47.350;8.718;2022-07-23T02:04:09;13.50;;;8.90;;
69323;SDS011;56470;47.350;8.718;2022-07-23T02:06:34;12.33;;;8.60;;
69323;SDS011;56470;47.350;8.718;2022-07-23T02:09:00;14.50;;;10.05;;
69323;SDS011;56470;47.350;8.718;2022-07-23T02:11:25;12.70;;;9.07;;
69323;SDS011;56470;47.350;8.718;2022-07-23T02:13:51;15.47;;;9.80;;
69323;SDS011;56470;47.350;8.718;2022-07-23T02:16:16;13.33;;;9.93;;
69323;SDS011;56470;47.350;8.718;2022-07-23T02:18:41;13.52;;;10.45;;
69323;SDS011;56470;47.350;8.718;2022-07-23T02:21:06;14.30;;;9.57;;
69323;SDS011;56470;47.350;8.718;2022-07-23T02:23:32;13.63;;;9.40;;
69323;SDS011;56470;47.350;8.718;2022-07-23T02:25:57;14.73;;;9.83;;
69323;SDS011;56470;47.350;8.718;2022-07-23T02:28:23;12.13;;;9.50;;
69323;SDS011;56470;47.350;8.718;2022-07-23T02:30:48;14.15;;;9.48;;
69323;SDS011;56470;47.350;8.718;2022-07-23T02:33:13;12.50;;;9.93;;
69323;SDS011;56470;47.350;8.718;2022-07-23T02:35:39;12.63;;;9.63;;
69323;SDS011;56470;47.350;8.718;2022-07-23T02:38:04;12.00;;;9.27;;
69323;SDS011;56470;47.350;8.718;2022-07-23T02:40:30;14.20;;;9.20;;
69323;SDS011;56470;47.350;8.718;2022-07-23T02:42:55;16.27;;;10.00;;
69323;SDS011;56470;47.350;8.718;2022-07-23T02:45:21;13.87;;;9.63;;
69323;SDS011;56470;47.350;8.718;2022-07-23T02:47:46;12.53;;;9.53;;
69323;SDS011;56470;47.350;8.718;2022-07-23T02:50:11;14.17;;;10.37;;
69323;SDS011;56470;47.350;8.718;2022-07-23T02:52:37;14.20;;;9.98;;
69323;SDS011;56470;47.350;8.718;2022-07-23T02:55:02;13.90;;;10.30;;
69323;SDS011;56470;47.350;8.718;2022-07-23T02:57:28;13.40;;;10.02;;
69323;SDS011;56470;47.350;8.718;2022-07-23T02:59:53;14.33;;;9.93;;
69323;SDS011;56470;47.350;8.718;2022-07-23T03:02:19;14.27;;;10.53;;
69323;SDS011;56470;47.350;8.718;2022-07-23T03:04:44;13.73;;;10.30;;
69323;SDS011;56470;47.350;8.718;2022-07-23T03:07:10;14.83;;;10.07;;
69323;SDS011;56470;47.350;8.718;2022-07-23T03:09:35;15.73;;;11.10;;
69323;SDS011;56470;47.350;8.718;2022-07-23T03:12:00;14.73;;;10.50;;
69323;SDS011;56470;47.350;8.718;2022-07-23T03:14:26;13.63;;;9.20;;
69323;SDS011;56470;47.350;8.718;2022-07-23T03:16:52;10.87;;;7.63;;
69323;SDS011;56470;47.350;8.718;2022-07-23T03:19:19;11.80;;;8.10;;
69323;SDS011;56470;47.350;8.718;2022-07-23T03:21:44;12.55;;;9.07;;
69323;SDS011;56470;47.350;8.718;2022-07-23T03:24:10;11.40;;;8.83;;
69323;SDS011;56470;47.350;8.718;2022-07-23T03:26:35;10.10;;;7.73;;
69323;SDS011;56470;47.350;8.718;2022-07-23T03:29:03;9.60;;;7.05;;
69323;SDS011;56470;47.350;8.718;2022-07-23T03:31:29;12.70;;;8.45;;
69323;SDS011;56470;47.350;8.718;2022-07-23T03:33:56;12.13;;;7.73;;
69323;SDS011;56470;47.350;8.718;2022-07-23T03:36:21;12.15;;;7.85;;
69323;SDS011;56470;47.350;8.718;2022-07-23T03:38:47;11.63;;;7.60;;
69323;SDS011;56470;47.350;8.718;2022-07-23T03:41:12;12.13;;;8.37;;
69323;SDS011;56470;47.350;8.718;2022-07-23T03:43:37;10.45;;;7.25;;
69323;SDS011;56470;47.350;8.718;2022-07-23T03:46:03;10.17;;;7.83;;
69323;SDS011;56470;47.350;8.718;2022-07-23T03:48:28;10.50;;;7.27;;
69323;SDS011;56470;47.350;8.718;2022-07-23T03:50:54;9.40;;;6.77;;
69323;SDS011;56470;47.350;8.718;2022-07-23T03:53:19;10.80;;;7.83;;
69323;SDS011;56470;47.350;8.718;2022-07-23T03:55:44;9.60;;;6.83;;
69323;SDS011;56470;47.350;8.718;2022-07-23T03:58:09;11.00;;;6.80;;
69323;SDS011;56470;47.350;8.718;2022-07-23T04:00:35;11.87;;;7.10;;
69323;SDS011;56470;47.350;8.718;2022-07-23T04:03:00;8.80;;;6.47;;
69323;SDS011;56470;47.350;8.718;2022-07-23T04:05:26;10.33;;;7.23;;
69323;SDS011;56470;47.350;8.718;2022-07-23T04:07:51;10.63;;;6.70;;
69323;SDS011;56470;47.350;8.718;2022-07-23T04:10:16;10.05;;;6.80;;
69323;SDS011;56470;47.350;8.718;2022-07-23T04:12:42;12.47;;;7.27;;
69323;SDS011;56470;47.350;8.718;2022-07-23T04:15:07;9.17;;;6.30;;
69323;SDS011;56470;47.350;8.718;2022-07-23T04:17:33;9.77;;;6.63;;
69323;SDS011;56470;47.350;8.718;2022-07-23T04:19:59;9.77;;;6.90;;
69323;SDS011;56470;47.350;8.718;2022-07-23T04:22:24;10.27;;;6.60;;
69323;SDS011;56470;47.350;8.718;2022-07-23T04:24:49;11.57;;;7.30;;
69323;SDS011;56470;47.350;8.718;2022-07-23T04:27:15;14.15;;;8.68;;
69323;SDS011;56470;47.350;8.718;2022-07-23T04:29:40;12.63;;;9.50;;
69323;SDS011;56470;47.350;8.718;2022-07-23T04:32:06;12.80;;;9.07;;
69323;SDS011;56470;47.350;8.718;2022-07-23T04:34:31;11.77;;;8.52;;
69323;SDS011;56470;47.350;8.718;2022-07-23T04:36:57;13.33;;;9.13;;
69323;SDS011;56470;47.350;8.718;2022-07-23T04:39:22;12.97;;;9.23;;
69323;SDS011;56470;47.350;8.718;2022-07-23T04:41:47;13.70;;;9.07;;
69323;SDS011;56470;47.350;8.718;2022-07-23T04:44:13;13.80;;;10.17;;
69323;SDS011;56470;47.350;8.718;2022-07-23T04:46:38;13.15;;;8.35;;
69323;SDS011;56470;47.350;8.718;2022-07-23T04:49:04;13.37;;;8.87;;
69323;SDS011;56470;47.350;8.718;2022-07-23T04:51:29;13.17;;;8.43;;
69323;SDS011;56470;47.350;8.718;2022-07-23T04:53:55;14.82;;;9.07;;
69323;SDS011;56470;47.350;8.718;2022-07-23T04:56:20;13.97;;;8.70;;
69323;SDS011;56470;47.350;8.718;2022-07-23T04:58:46;12.77;;;9.30;;
69323;SDS011;56470;47.350;8.718;2022-07-23T05:01:12;12.20;;;8.67;;
69323;SDS011;56470;47.350;8.718;2022-07-23T05:03:38;11.52;;;8.60;;
69323;SDS011;56470;47.350;8.718;2022-07-23T05:06:03;13.63;;;9.37;;
69323;SDS011;56470;47.350;8.718;2022-07-23T05:08:29;13.30;;;9.67;;
69323;SDS011;56470;47.350;8.718;2022-07-23T05:10:54;14.80;;;9.60;;
69323;SDS011;56470;47.350;8.718;2022-07-23T05:13:20;13.38;;;9.02;;
69323;SDS011;56470;47.350;8.718;2022-07-23T05:15:45;11.97;;;9.03;;
69323;SDS011;56470;47.350;8.718;2022-07-23T05:18:11;12.90;;;8.68;;
69323;SDS011;56470;47.350;8.718;2022-07-23T05:20:36;12.60;;;9.07;;
69323;SDS011;56470;47.350;8.718;2022-07-23T05:23:02;14.93;;;8.97;;
69323;SDS011;56470;47.350;8.718;2022-07-23T05:25:28;11.40;;;8.10;;
69323;SDS011;56470;47.350;8.718;2022-07-23T05:27:53;13.70;;;8.63;;
69323;SDS011;56470;47.350;8.718;2022-07-23T05:30:18;11.73;;;8.13;;
69323;SDS011;56470;47.350;8.718;2022-07-23T05:32:44;12.60;;;9.25;;
69323;SDS011;56470;47.350;8.718;2022-07-23T05:35:09;11.50;;;7.43;;
69323;SDS011;56470;47.350;8.718;2022-07-23T05:37:35;11.93;;;8.30;;
69323;SDS011;56470;47.350;8.718;2022-07-23T05:40:03;11.83;;;7.90;;
69323;SDS011;56470;47.350;8.718;2022-07-23T05:42:32;10.98;;;6.80;;
69323;SDS011;56470;47.350;8.718;2022-07-23T05:44:58;11.90;;;8.20;;
69323;SDS011;56470;47.350;8.718;2022-07-23T05:47:23;11.57;;;7.65;;
69323;SDS011;56470;47.350;8.718;2022-07-23T05:49:48;11.70;;;8.17;;
69323;SDS011;56470;47.350;8.718;2022-07-23T05:52:14;12.50;;;8.80;;
69323;SDS011;56470;47.350;8.718;2022-07-23T05:54:39;12.57;;;8.17;;
69323;SDS011;56470;47.350;8.718;2022-07-23T05:57:04;12.60;;;8.20;;
69323;SDS011;56470;47.350;8.718;2022-07-23T05:59:30;12.32;;;9.68;;
69323;SDS011;56470;47.350;8.718;2022-07-23T06:01:55;14.17;;;9.83;;
69323;SDS011;56470;47.350;8.718;2022-07-23T06:04:21;16.03;;;9.77;;
69323;SDS011;56470;47.350;8.718;2022-07-23T06:06:46;15.50;;;10.67;;
69323;SDS011;56470;47.350;8.718;2022-07-23T06:09:11;15.87;;;10.60;;
69323;SDS011;56470;47.350;8.718;2022-07-23T06:11:38;15.82;;;10.55;;
69323;SDS011;56470;47.350;8.718;2022-07-23T06:14:04;16.95;;;10.98;;
69323;SDS011;56470;47.350;8.718;2022-07-23T06:16:29;13.70;;;10.13;;
69323;SDS011;56470;47.350;8.718;2022-07-23T06:18:55;14.73;;;10.83;;
69323;SDS011;56470;47.350;8.718;2022-07-23T06:21:20;13.53;;;9.50;;
69323;SDS011;56470;47.350;8.718;2022-07-23T06:23:45;15.20;;;9.93;;
69323;SDS011;56470;47.350;8.718;2022-07-23T06:26:11;16.63;;;10.33;;
69323;SDS011;56470;47.350;8.718;2022-07-23T06:28:36;16.60;;;10.93;;
69323;SDS011;56470;47.350;8.718;2022-07-23T06:31:01;14.83;;;9.83;;
69323;SDS011;56470;47.350;8.718;2022-07-23T06:33:27;17.40;;;10.87;;
69323;SDS011;56470;47.350;8.718;2022-07-23T06:35:52;16.90;;;12.43;;
69323;SDS011;56470;47.350;8.718;2022-07-23T06:38:17;14.03;;;10.50;;
69323;SDS011;56470;47.350;8.718;2022-07-23T06:40:43;15.40;;;11.75;;
69323;SDS011;56470;47.350;8.718;2022-07-23T06:43:09;14.73;;;10.67;;
69323;SDS011;56470;47.350;8.718;2022-07-23T06:45:35;16.05;;;11.18;;
69323;SDS011;56470;47.350;8.718;2022-07-23T06:48:00;15.03;;;11.17;;
69323;SDS011;56470;47.350;8.718;2022-07-23T06:50:27;16.90;;;11.27;;
69323;SDS011;56470;47.350;8.718;2022-07-23T06:52:52;16.10;;;11.37;;
69323;SDS011;56470;47.350;8.718;2022-07-23T06:55:18;17.00;;;12.17;;
69323;SDS011;56470;47.350;8.718;2022-07-23T06:57:43;17.75;;;12.10;;
69323;SDS011;56470;47.350;8.718;2022-07-23T07:00:09;17.53;;;12.20;;
69323;SDS011;56470;47.350;8.718;2022-07-23T07:02:35;18.27;;;12.05;;
69323;SDS011;56470;47.350;8.718;2022-07-23T07:05:00;15.17;;;11.03;;
69323;SDS011;56470;47.350;8.718;2022-07-23T07:07:25;17.50;;;12.00;;
69323;SDS011;56470;47.350;8.718;2022-07-23T07:09:51;17.83;;;12.40;;
69323;SDS011;56470;47.350;8.718;2022-07-23T07:12:16;19.40;;;12.47;;
69323;SDS011;56470;47.350;8.718;2022-07-23T07:14:42;18.00;;;12.77;;
69323;SDS011;56470;47.350;8.718;2022-07-23T07:17:07;16.23;;;11.57;;
69323;SDS011;56470;47.350;8.718;2022-07-23T07:19:33;16.10;;;12.15;;
69323;SDS011;56470;47.350;8.718;2022-07-23T07:21:58;15.07;;;10.30;;
69323;SDS011;56470;47.350;8.718;2022-07-23T07:24:24;15.57;;;11.20;;
69323;SDS011;56470;47.350;8.718;2022-07-23T07:26:49;16.30;;;11.33;;
69323;SDS011;56470;47.350;8.718;2022-07-23T07:29:14;20.33;;;13.03;;
69323;SDS011;56470;47.350;8.718;2022-07-23T07:31:40;19.37;;;12.70;;
69323;SDS011;56470;47.350;8.718;2022-07-23T07:34:05;20.20;;;13.47;;
69323;SDS011;56470;47.350;8.718;2022-07-23T07:36:34;19.15;;;13.23;;
69323;SDS011;56470;47.350;8.718;2022-07-23T07:39:02;17.83;;;13.23;;
69323;SDS011;56470;47.350;8.718;2022-07-23T07:41:30;17.88;;;12.20;;
69323;SDS011;56470;47.350;8.718;2022-07-23T07:43:58;14.70;;;10.85;;
69323;SDS011;56470;47.350;8.718;2022-07-23T07:46:25;16.20;;;11.32;;
69323;SDS011;56470;47.350;8.718;2022-07-23T07:48:52;19.70;;;11.25;;
69323;SDS011;56470;47.350;8.718;2022-07-23T07:51:18;16.33;;;11.17;;
69323;SDS011;56470;47.350;8.718;2022-07-23T07:53:43;15.57;;;10.70;;
69323;SDS011;56470;47.350;8.718;2022-07-23T07:56:08;16.20;;;11.20;;
69323;SDS011;56470;47.350;8.718;2022-07-23T07:58:34;17.02;;;11.57;;
69323;SDS011;56470;47.350;8.718;2022-07-23T08:00:59;17.20;;;11.10;;
69323;SDS011;56470;47.350;8.718;2022-07-23T08:03:25;17.97;;;11.80;;
69323;SDS011;56470;47.350;8.718;2022-07-23T08:05:51;19.50;;;11.27;;
69323;SDS011;56470;47.350;8.718;2022-07-23T08:08:16;18.43;;;11.97;;
69323;SDS011;56470;47.350;8.718;2022-07-23T08:10:41;15.20;;;10.87;;
69323;SDS011;56470;47.350;8.718;2022-07-23T08:13:08;16.70;;;10.63;;
69323;SDS011;56470;47.350;8.718;2022-07-23T08:15:39;16.70;;;11.38;;
69323;SDS011;56470;47.350;8.718;2022-07-23T08:18:05;15.00;;;10.40;;
69323;SDS011;56470;47.350;8.718;2022-07-23T08:20:30;15.73;;;10.53;;
69323;SDS011;56470;47.350;8.718;2022-07-23T08:22:56;15.77;;;10.20;;
69323;SDS011;56470;47.350;8.718;2022-07-23T08:25:27;15.20;;;9.77;;
69323;SDS011;56470;47.350;8.718;2022-07-23T08:28:00;16.20;;;11.48;;
69323;SDS011;56470;47.350;8.718;2022-07-23T08:30:27;14.95;;;9.85;;
69323;SDS011;56470;47.350;8.718;2022-07-23T08:35:40;13.88;;;10.05;;
69323;SDS011;56470;47.350;8.718;2022-07-23T08:38:11;17.33;;;10.03;;
69323;SDS011;56470;47.350;8.718;2022-07-23T08:40:45;13.02;;;9.00;;
69323;SDS011;56470;47.350;8.718;2022-07-23T08:43:23;16.10;;;9.80;;
69323;SDS011;56470;47.350;8.718;2022-07-23T08:45:50;12.13;;;8.43;;
69323;SDS011;56470;47.350;8.718;2022-07-23T08:48:22;15.85;;;9.02;;
69323;SDS011;56470;47.350;8.718;2022-07-23T08:50:50;13.93;;;9.73;;
69323;SDS011;56470;47.350;8.718;2022-07-23T08:53:17;12.65;;;8.77;;
69323;SDS011;56470;47.350;8.718;2022-07-23T08:55:44;13.35;;;9.40;;
69323;SDS011;56470;47.350;8.718;2022-07-23T08:58:13;12.40;;;9.23;;
69323;SDS011;56470;47.350;8.718;2022-07-23T09:00:38;15.40;;;9.50;;
69323;SDS011;56470;47.350;8.718;2022-07-23T09:03:04;16.23;;;9.18;;
69323;SDS011;56470;47.350;8.718;2022-07-23T09:05:29;13.37;;;9.33;;
69323;SDS011;56470;47.350;8.718;2022-07-23T09:08:08;13.37;;;9.10;;
69323;SDS011;56470;47.350;8.718;2022-07-23T09:10:54;14.32;;;9.00;;
69323;SDS011;56470;47.350;8.718;2022-07-23T09:13:35;12.63;;;8.63;;
69323;SDS011;56470;47.350;8.718;2022-07-23T09:18:33;12.90;;;9.00;;
69323;SDS011;56470;47.350;8.718;2022-07-23T09:23:37;12.18;;;8.57;;
69323;SDS011;56470;47.350;8.718;2022-07-23T09:31:45;13.57;;;8.90;;
69323;SDS011;56470;47.350;8.718;2022-07-23T09:36:49;12.23;;;8.55;;
69323;SDS011;56470;47.350;8.718;2022-07-23T09:39:22;12.25;;;7.60;;
69323;SDS011;56470;47.350;8.718;2022-07-23T09:41:51;12.43;;;8.73;;
69323;SDS011;56470;47.350;8.718;2022-07-23T09:44:17;12.80;;;8.00;;
69323;SDS011;56470;47.350;8.718;2022-07-23T09:46:48;11.50;;;9.02;;
69323;SDS011;56470;47.350;8.718;2022-07-23T09:49:22;11.80;;;8.18;;
69323;SDS011;56470;47.350;8.718;2022-07-23T09:51:52;12.73;;;9.00;;
69323;SDS011;56470;47.350;8.718;2022-07-23T09:54:32;12.43;;;8.63;;
69323;SDS011;56470;47.350;8.718;2022-07-23T09:57:00;12.02;;;8.77;;
69323;SDS011;56470;47.350;8.718;2022-07-23T09:59:32;10.57;;;8.52;;
69323;SDS011;56470;47.350;8.718;2022-07-23T10:02:03;11.93;;;8.35;;
69323;SDS011;56470;47.350;8.718;2022-07-23T10:04:30;11.67;;;8.00;;
69323;SDS011;56470;47.350;8.718;2022-07-23T10:06:59;12.02;;;8.38;;
69323;SDS011;56470;47.350;8.718;2022-07-23T10:09:28;12.52;;;8.68;;
69323;SDS011;56470;47.350;8.718;2022-07-23T10:11:57;12.55;;;8.68;;
69323;SDS011;56470;47.350;8.718;2022-07-23T10:14:47;15.43;;;8.18;;
69323;SDS011;56470;47.350;8.718;2022-07-23T10:17:13;19.63;;;11.40;;
69323;SDS011;56470;47.350;8.718;2022-07-23T10:19:39;14.63;;;9.30;;
69323;SDS011;56470;47.350;8.718;2022-07-23T10:22:09;12.95;;;7.63;;
69323;SDS011;56470;47.350;8.718;2022-07-23T10:30:06;8.65;;;6.45;;
69323;SDS011;56470;47.350;8.718;2022-07-23T10:37:54;9.50;;;7.50;;
69323;SDS011;56470;47.350;8.718;2022-07-23T10:40:26;11.93;;;8.35;;
69323;SDS011;56470;47.350;8.718;2022-07-23T10:42:53;10.55;;;7.70;;
69323;SDS011;56470;47.350;8.718;2022-07-23T10:48:19;10.65;;;7.50;;
69323;SDS011;56470;47.350;8.718;2022-07-23T10:59:19;9.77;;;7.13;;
69323;SDS011;56470;47.350;8.718;2022-07-23T11:01:45;9.70;;;7.95;;
69323;SDS011;56470;47.350;8.718;2022-07-23T11:04:11;12.00;;;7.63;;
69323;SDS011;56470;47.350;8.718;2022-07-23T11:07:20;9.10;;;7.07;;
69323;SDS011;56470;47.350;8.718;2022-07-23T11:09:27;10.30;;;6.83;;
69323;SDS011;56470;47.350;8.718;2022-07-23T11:25:14;9.80;;;6.78;;
69323;SDS011;56470;47.350;8.718;2022-07-23T11:47:05;8.80;;;7.22;;
69323;SDS011;56470;47.350;8.718;2022-07-23T11:49:31;12.35;;;7.32;;
69323;SDS011;56470;47.350;8.718;2022-07-23T11:52:08;10.00;;;7.40;;
69323;SDS011;56470;47.350;8.718;2022-07-23T11:54:36;9.38;;;7.40;;
69323;SDS011;56470;47.350;8.718;2022-07-23T11:57:11;10.05;;;6.95;;
69323;SDS011;56470;47.350;8.718;2022-07-23T11:59:40;10.87;;;7.30;;
69323;SDS011;56470;47.350;8.718;2022-07-23T12:02:07;10.63;;;7.70;;
69323;SDS011;56470;47.350;8.718;2022-07-23T12:10:26;10.30;;;7.55;;
69323;SDS011;56470;47.350;8.718;2022-07-23T12:12:57;11.15;;;7.55;;
69323;SDS011;56470;47.350;8.718;2022-07-23T12:15:26;8.27;;;7.03;;
69323;SDS011;56470;47.350;8.718;2022-07-23T12:18:00;10.90;;;7.50;;
69323;SDS011;56470;47.350;8.718;2022-07-23T12:20:33;10.20;;;7.65;;
69323;SDS011;56470;47.350;8.718;2022-07-23T12:23:20;10.18;;;6.80;;
69323;SDS011;56470;47.350;8.718;2022-07-23T12:25:49;9.57;;;7.43;;
69323;SDS011;56470;47.350;8.718;2022-07-23T12:28:22;9.63;;;6.63;;
69323;SDS011;56470;47.350;8.718;2022-07-23T12:30:53;10.10;;;7.05;;
69323;SDS011;56470;47.350;8.718;2022-07-23T12:33:30;10.52;;;7.70;;
69323;SDS011;56470;47.350;8.718;2022-07-23T12:35:56;9.50;;;7.13;;
69323;SDS011;56470;47.350;8.718;2022-07-23T12:38:24;9.18;;;6.72;;
69323;SDS011;56470;47.350;8.718;2022-07-23T12:40:55;9.93;;;7.60;;
69323;SDS011;56470;47.350;8.718;2022-07-23T12:43:24;9.23;;;7.35;;
69323;SDS011;56470;47.350;8.718;2022-07-23T12:45:51;9.45;;;7.93;;
69323;SDS011;56470;47.350;8.718;2022-07-23T12:48:31;9.35;;;6.72;;
69323;SDS011;56470;47.350;8.718;2022-07-23T12:51:08;9.90;;;7.72;;
69323;SDS011;56470;47.350;8.718;2022-07-23T12:53:41;10.80;;;7.27;;
69323;SDS011;56470;47.350;8.718;2022-07-23T12:56:13;10.10;;;7.15;;
69323;SDS011;56470;47.350;8.718;2022-07-23T12:58:47;12.02;;;7.55;;
69323;SDS011;56470;47.350;8.718;2022-07-23T13:04:46;11.30;;;7.85;;
69323;SDS011;56470;47.350;8.718;2022-07-23T13:06:49;9.47;;;7.13;;
69323;SDS011;56470;47.350;8.718;2022-07-23T13:09:17;10.48;;;7.13;;
69323;SDS011;56470;47.350;8.718;2022-07-23T13:11:47;9.50;;;8.18;;
69323;SDS011;56470;47.350;8.718;2022-07-23T13:14:14;11.38;;;7.80;;
69323;SDS011;56470;47.350;8.718;2022-07-23T13:16:40;11.13;;;7.38;;
69323;SDS011;56470;47.350;8.718;2022-07-23T13:19:07;9.70;;;7.90;;
69323;SDS011;56470;47.350;8.718;2022-07-23T13:21:32;10.77;;;8.30;;
69323;SDS011;56470;47.350;8.718;2022-07-23T13:23:58;10.87;;;8.17;;
69323;SDS011;56470;47.350;8.718;2022-07-23T13:26:25;11.25;;;8.07;;
69323;SDS011;56470;47.350;8.718;2022-07-23T13:28:53;10.30;;;7.75;;
69323;SDS011;56470;47.350;8.718;2022-07-23T13:31:19;10.33;;;7.50;;
69323;SDS011;56470;47.350;8.718;2022-07-23T13:33:45;11.00;;;7.70;;
69323;SDS011;56470;47.350;8.718;2022-07-23T13:36:10;10.77;;;8.35;;
69323;SDS011;56470;47.350;8.718;2022-07-23T13:38:36;10.93;;;7.80;;
69323;SDS011;56470;47.350;8.718;2022-07-23T13:41:01;11.07;;;8.17;;
69323;SDS011;56470;47.350;8.718;2022-07-23T13:43:28;11.35;;;7.75;;
69323;SDS011;56470;47.350;8.718;2022-07-23T13:45:54;10.88;;;8.00;;
69323;SDS011;56470;47.350;8.718;2022-07-23T13:48:20;10.67;;;8.00;;
69323;SDS011;56470;47.350;8.718;2022-07-23T13:50:46;11.50;;;7.95;;
69323;SDS011;56470;47.350;8.718;2022-07-23T13:53:14;10.05;;;8.07;;
69323;SDS011;56470;47.350;8.718;2022-07-23T13:55:41;10.30;;;8.17;;
69323;SDS011;56470;47.350;8.718;2022-07-23T13:58:08;9.48;;;7.80;;
69323;SDS011;56470;47.350;8.718;2022-07-23T14:00:35;9.63;;;7.85;;
69323;SDS011;56470;47.350;8.718;2022-07-23T14:03:02;8.95;;;7.40;;
69323;SDS011;56470;47.350;8.718;2022-07-23T14:05:27;9.20;;;7.60;;
69323;SDS011;56470;47.350;8.718;2022-07-23T14:07:53;12.07;;;8.30;;
69323;SDS011;56470;47.350;8.718;2022-07-23T14:10:19;10.32;;;7.63;;
69323;SDS011;56470;47.350;8.718;2022-07-23T14:12:46;11.85;;;8.68;;
69323;SDS011;56470;47.350;8.718;2022-07-23T14:15:13;10.32;;;8.23;;
69323;SDS011;56470;47.350;8.718;2022-07-23T14:17:40;12.40;;;8.30;;
69323;SDS011;56470;47.350;8.718;2022-07-23T14:20:07;10.90;;;8.75;;
69323;SDS011;56470;47.350;8.718;2022-07-23T14:22:35;10.15;;;7.20;;
69323;SDS011;56470;47.350;8.718;2022-07-23T14:25:01;9.83;;;8.40;;
69323;SDS011;56470;47.350;8.718;2022-07-23T14:27:27;9.38;;;7.85;;
69323;SDS011;56470;47.350;8.718;2022-07-23T14:29:53;11.43;;;7.68;;
69323;SDS011;56470;47.350;8.718;2022-07-23T14:32:19;10.02;;;7.43;;
69323;SDS011;56470;47.350;8.718;2022-07-23T14:34:45;11.00;;;8.17;;
69323;SDS011;56470;47.350;8.718;2022-07-23T14:37:10;10.10;;;7.93;;
69323;SDS011;56470;47.350;8.718;2022-07-23T14:39:39;9.93;;;7.80;;
69323;SDS011;56470;47.350;8.718;2022-07-23T14:42:05;9.20;;;7.53;;
69323;SDS011;56470;47.350;8.718;2022-07-23T14:44:31;11.82;;;8.55;;
69323;SDS011;56470;47.350;8.718;2022-07-23T14:46:57;10.93;;;8.30;;
69323;SDS011;56470;47.350;8.718;2022-07-23T14:49:22;9.30;;;7.03;;
69323;SDS011;56470;47.350;8.718;2022-07-23T14:51:49;10.53;;;7.23;;
69323;SDS011;56470;47.350;8.718;2022-07-23T14:54:14;9.70;;;8.10;;
69323;SDS011;56470;47.350;8.718;2022-07-23T14:56:41;9.80;;;7.33;;
69323;SDS011;56470;47.350;8.718;2022-07-23T14:59:07;12.70;;;8.13;;
69323;SDS011;56470;47.350;8.718;2022-07-23T15:01:32;9.77;;;7.47;;
69323;SDS011;56470;47.350;8.718;2022-07-23T15:03:58;10.53;;;8.23;;
69323;SDS011;56470;47.350;8.718;2022-07-23T15:06:24;10.00;;;7.60;;
69323;SDS011;56470;47.350;8.718;2022-07-23T15:08:50;11.40;;;7.63;;
69323;SDS011;56470;47.350;8.718;2022-07-23T15:11:15;11.48;;;8.18;;
69323;SDS011;56470;47.350;8.718;2022-07-23T15:13:41;10.20;;;7.60;;
69323;SDS011;56470;47.350;8.718;2022-07-23T15:16:06;11.40;;;8.20;;
69323;SDS011;56470;47.350;8.718;2022-07-23T15:18:33;9.30;;;7.03;;
69323;SDS011;56470;47.350;8.718;2022-07-23T15:21:00;12.30;;;7.45;;
69323;SDS011;56470;47.350;8.718;2022-07-23T15:23:26;9.40;;;8.13;;
69323;SDS011;56470;47.350;8.718;2022-07-23T15:25:53;10.52;;;8.02;;
69323;SDS011;56470;47.350;8.718;2022-07-23T15:28:19;9.40;;;7.77;;
69323;SDS011;56470;47.350;8.718;2022-07-23T15:30:45;10.73;;;8.25;;
69323;SDS011;56470;47.350;8.718;2022-07-23T15:33:10;10.43;;;7.40;;
69323;SDS011;56470;47.350;8.718;2022-07-23T15:35:36;9.50;;;7.63;;
69323;SDS011;56470;47.350;8.718;2022-07-23T15:38:01;9.63;;;8.15;;
69323;SDS011;56470;47.350;8.718;2022-07-23T15:40:27;13.30;;;7.67;;
69323;SDS011;56470;47.350;8.718;2022-07-23T15:42:52;9.17;;;7.63;;
69323;SDS011;56470;47.350;8.718;2022-07-23T15:45:17;11.40;;;8.30;;
69323;SDS011;56470;47.350;8.718;2022-07-23T15:47:43;9.63;;;7.60;;
69323;SDS011;56470;47.350;8.718;2022-07-23T15:50:09;9.73;;;7.63;;
69323;SDS011;56470;47.350;8.718;2022-07-23T15:52:36;8.88;;;7.75;;